Time;durP1;ratioP1;P1;durP2;ratioP2;P2;SDS_P1;SDS_P2;PMS_P1;PMS_P2;Temp;Humidity;BMP_temperature;BMP_pressure;BME280_temperature;BME280_humidity;BME280_pressure;Samples;Min_cycle;Max_cycle;Signal;HPM_P1;HPM_P2
2021/11/20 00:00:29;;;;;;;23.42;13.65;;;;;;;8.50;60.94;95563.16;4907447;29;20036;-80
2021/11/20 00:02:55;;;;;;;25.80;12.80;;;;;;;8.50;61.20;95558.78;4876370;29;20036;-80
2021/11/20 00:05:23;;;;;;;22.20;11.90;;;;;;;8.50;60.97;95565.75;4890461;29;20052;-80
2021/11/20 00:08:00;;;;;;;20.25;12.07;;;;;;;8.49;61.57;95556.38;4875785;29;20505;-79
2021/11/20 00:10:27;;;;;;;27.35;15.48;;;;;;;8.43;61.15;95558.75;4874918;29;20076;-80
2021/11/20 00:15:35;;;;;;;22.48;11.52;;;;;;;8.36;61.83;95547.59;5264261;23;20659;-80
2021/11/20 00:18:01;;;;;;;18.42;11.63;;;;;;;8.26;61.80;95557.53;4927120;29;20624;-80
2021/11/20 00:20:28;;;;;;;23.98;10.73;;;;;;;8.19;62.10;95543.78;4932043;29;20179;-80
2021/11/20 00:22:53;;;;;;;17.95;11.32;;;;;;;8.14;62.87;95546.19;4910012;29;20118;-80
2021/11/20 00:25:34;;;;;;;26.33;12.07;;;;;;;8.11;62.80;95556.91;4906431;29;20180;-81
2021/11/20 00:28:00;;;;;;;18.95;12.20;;;;;;;8.13;63.15;95560.94;4927290;29;20416;-81
2021/11/20 00:30:30;;;;;;;23.98;12.15;;;;;;;8.14;63.13;95564.31;4925212;29;20043;-81
2021/11/20 00:33:04;;;;;;;16.35;12.95;;;;;;;8.18;63.02;95544.00;4925805;29;20035;-80
2021/11/20 00:35:35;;;;;;;22.60;12.98;;;;;;;8.15;63.34;95552.97;4909526;29;20044;-80
2021/11/20 00:38:02;;;;;;;23.55;11.63;;;;;;;8.13;63.26;95541.97;4894275;29;20319;-81
2021/11/20 00:40:33;;;;;;;17.63;12.20;;;;;;;8.11;64.10;95549.94;4932882;29;20042;-80
2021/11/20 00:42:59;;;;;;;20.48;13.00;;;;;;;8.05;64.40;95555.94;4926172;29;20091;-80
2021/11/20 00:45:25;;;;;;;19.92;12.13;;;;;;;8.03;64.23;95563.09;4916195;29;20036;-80
2021/11/20 00:47:50;;;;;;;19.27;13.60;;;;;;;8.01;64.61;95557.31;4929815;29;20028;-80
2021/11/20 00:50:18;;;;;;;20.25;13.43;;;;;;;8.09;64.06;95556.31;4893276;29;20036;-80
2021/11/20 00:52:43;;;;;;;16.48;12.02;;;;;;;8.14;64.19;95553.97;4895383;29;20042;-80
2021/11/20 00:55:13;;;;;;;17.63;11.63;;;;;;;8.23;63.64;95551.94;4919331;29;20036;-80
2021/11/20 00:57:39;;;;;;;16.83;12.38;;;;;;;8.19;63.79;95551.56;4936168;29;20046;-80
2021/11/20 01:00:07;;;;;;;13.48;10.15;;;;;;;8.26;63.69;95552.34;4912924;29;20411;-80
2021/11/20 01:02:33;;;;;;;26.42;11.77;;;;;;;8.24;63.99;95546.56;4918449;29;20047;-80
2021/11/20 01:04:58;;;;;;;13.52;10.15;;;;;;;8.29;63.58;95545.97;4912163;29;20032;-80
2021/11/20 01:07:24;;;;;;;18.63;11.60;;;;;;;8.29;63.95;95533.81;4918460;29;20039;-79
2021/11/20 01:09:49;;;;;;;18.52;11.57;;;;;;;8.30;64.27;95532.84;4927058;29;20046;-79
2021/11/20 01:12:20;;;;;;;14.55;10.50;;;;;;;8.32;63.85;95541.22;4894490;29;20518;-79
2021/11/20 01:14:46;;;;;;;15.07;10.50;;;;;;;8.34;64.12;95534.06;4928519;29;20089;-79
2021/11/20 01:17:12;;;;;;;15.30;12.00;;;;;;;8.33;64.24;95527.25;4927329;29;20651;-79
2021/11/20 01:19:38;;;;;;;14.25;10.55;;;;;;;8.33;64.23;95532.44;4917505;29;20064;-78
2021/11/20 01:22:05;;;;;;;18.70;12.20;;;;;;;8.36;64.29;95529.47;4918567;29;20439;-80
2021/11/20 01:24:31;;;;;;;17.65;12.48;;;;;;;8.36;64.45;95531.25;4927946;29;20059;-80
2021/11/20 01:26:57;;;;;;;19.77;11.90;;;;;;;8.38;64.48;95529.25;4904317;29;20047;-79
2021/11/20 01:29:22;;;;;;;14.98;10.27;;;;;;;8.32;64.38;95536.03;4919940;29;20028;-79
2021/11/20 01:31:49;;;;;;;18.55;11.80;;;;;;;8.28;64.67;95536.59;4919573;29;20055;-80
2021/11/20 01:34:16;;;;;;;15.60;10.77;;;;;;;8.24;64.79;95531.03;4912078;29;20032;-79
2021/11/20 01:36:42;;;;;;;14.52;10.55;;;;;;;8.22;64.65;95530.44;4927096;29;20110;-80
2021/11/20 01:39:18;;;;;;;23.35;12.15;;;;;;;8.17;65.18;95542.41;4944136;29;20052;-79
2021/11/20 01:41:45;;;;;;;14.60;11.23;;;;;;;8.13;65.23;95537.63;4933427;29;20032;-80
2021/11/20 01:44:16;;;;;;;15.40;11.48;;;;;;;8.15;65.01;95539.22;4935936;29;20131;-80
2021/11/20 01:46:44;;;;;;;15.60;11.50;;;;;;;8.17;65.68;95548.38;4912272;29;20134;-78
2021/11/20 01:49:20;;;;;;;16.38;12.18;;;;;;;8.24;65.49;95543.97;4926305;29;20046;-84
2021/11/20 01:51:52;;;;;;;18.75;11.40;;;;;;;8.24;64.81;95541.38;4899769;29;20032;-81
2021/11/20 01:54:48;;;;;;;16.55;11.27;;;;;;;8.28;65.38;95534.00;4924779;29;20035;-80
2021/11/20 01:57:13;;;;;;;16.05;11.63;;;;;;;8.28;64.96;95531.41;4915021;29;20035;-81
2021/11/20 02:00:10;;;;;;;22.25;12.95;;;;;;;8.36;64.74;95536.44;4929832;29;20585;-80
2021/11/20 02:02:41;;;;;;;22.08;12.85;;;;;;;8.48;64.95;95528.88;4931178;29;20036;-81
2021/11/20 02:05:28;;;;;;;15.52;10.63;;;;;;;8.56;63.83;95526.06;4926082;29;20130;-81
2021/11/20 02:08:02;;;;;;;17.08;11.02;;;;;;;8.63;63.91;95521.69;4922419;29;20032;-81
2021/11/20 02:10:46;;;;;;;14.63;10.38;;;;;;;8.63;64.29;95517.28;4919693;29;20043;-80
2021/11/20 02:13:15;;;;;;;12.80;9.38;;;;;;;8.67;63.86;95520.28;4933043;29;20067;-80
2021/11/20 02:16:06;;;;;;;12.88;9.68;;;;;;;8.64;63.67;95512.91;4937368;29;20074;-81
2021/11/20 02:18:35;;;;;;;12.13;8.70;;;;;;;8.64;63.69;95518.09;4920140;29;20058;-82
2021/11/20 02:21:24;;;;;;;22.48;9.48;;;;;;;8.54;64.50;95500.34;4896307;29;20048;-81
2021/11/20 02:23:50;;;;;;;11.43;9.45;;;;;;;8.47;65.20;95506.53;4920826;29;20920;-81
2021/11/20 02:26:16;;;;;;;13.88;10.80;;;;;;;8.46;65.41;95508.34;4932705;29;20051;-82
2021/11/20 02:28:42;;;;;;;10.95;9.10;;;;;;;8.45;65.44;95503.34;4929033;29;20047;-81
2021/11/20 02:31:07;;;;;;;11.38;9.18;;;;;;;8.45;65.14;95504.13;4910956;29;20419;-81
2021/11/20 02:33:35;;;;;;;15.45;10.35;;;;;;;8.45;64.93;95498.16;4932243;29;20038;-81
2021/11/20 02:36:20;;;;;;;12.68;8.95;;;;;;;8.51;64.81;95502.53;4936644;29;20036;-80
2021/11/20 02:39:04;;;;;;;10.07;8.90;;;;;;;8.58;64.57;95508.50;4899258;29;20036;-81
2021/11/20 02:41:30;;;;;;;12.23;8.80;;;;;;;8.56;64.31;95494.94;4928856;29;20562;-81
2021/11/20 02:43:57;;;;;;;11.48;9.02;;;;;;;8.54;64.63;95477.00;4928586;29;20032;-80
2021/11/20 02:46:25;;;;;;;11.73;8.85;;;;;;;8.54;64.61;95489.19;4936121;29;20040;-81
2021/11/20 02:48:50;;;;;;;11.70;8.80;;;;;;;8.56;64.36;95489.78;4896195;29;20028;-81
2021/11/20 02:51:18;;;;;;;14.05;8.18;;;;;;;8.58;64.67;95478.19;4896597;29;20143;-81
2021/11/20 02:53:51;;;;;;;12.02;9.75;;;;;;;8.55;64.56;95477.81;4930233;29;20051;-81
2021/11/20 02:56:18;;;;;;;16.23;9.15;;;;;;;8.50;64.84;95475.03;4913057;29;20083;-81
2021/11/20 02:58:45;;;;;;;11.05;8.07;;;;;;;8.49;64.76;95471.66;4938712;29;20079;-81
2021/11/20 03:01:37;;;;;;;13.63;8.57;;;;;;;8.55;64.77;95467.44;4922224;29;20035;-81
2021/11/20 03:04:07;;;;;;;9.93;8.90;;;;;;;8.51;65.40;95472.25;4910972;29;20055;-82
2021/11/20 03:06:33;;;;;;;11.35;8.07;;;;;;;8.53;64.88;95470.25;4935820;29;20067;-81
2021/11/20 03:08:59;;;;;;;20.45;8.40;;;;;;;8.57;65.23;95468.03;4920764;29;20135;-81
2021/11/20 03:11:24;;;;;;;16.90;9.07;;;;;;;8.59;65.32;95468.63;4935626;29;20423;-81
2021/11/20 03:13:52;;;;;;;16.92;11.48;;;;;;;8.49;64.84;95455.31;4908552;29;20036;-81
2021/11/20 03:16:18;;;;;;;15.68;10.50;;;;;;;8.62;65.56;95474.22;4919280;29;20051;-81
2021/11/20 03:18:43;;;;;;;11.98;9.60;;;;;;;8.58;65.55;95473.00;4893543;29;20046;-81
2021/11/20 03:21:09;;;;;;;17.08;10.68;;;;;;;8.57;65.15;95475.81;4920071;29;20028;-81
2021/11/20 03:23:41;;;;;;;15.80;10.65;;;;;;;8.59;65.47;95468.63;4920443;29;20127;-81
2021/11/20 03:26:06;;;;;;;19.33;10.60;;;;;;;8.62;65.16;95478.59;4899011;29;20068;-79
2021/11/20 03:28:32;;;;;;;17.60;11.82;;;;;;;8.60;65.63;95465.03;4926417;29;20039;-79
2021/11/20 03:30:57;;;;;;;19.52;12.68;;;;;;;8.64;65.34;95466.25;4951612;29;20059;-79
2021/11/20 03:33:23;;;;;;;13.02;10.05;;;;;;;8.68;65.56;95462.22;4920116;29;20068;-81
2021/11/20 03:35:48;;;;;;;13.57;9.00;;;;;;;8.70;65.19;95471.41;4898489;29;20047;-81
2021/11/20 03:38:14;;;;;;;14.05;9.00;;;;;;;8.66;65.06;95469.41;4899615;29;20050;-80
2021/11/20 03:40:40;;;;;;;13.63;9.52;;;;;;;8.65;64.85;95468.63;4913698;29;20032;-82
2021/11/20 03:43:05;;;;;;;15.70;9.82;;;;;;;8.57;65.53;95478.41;4912895;29;20044;-81
2021/11/20 03:45:35;;;;;;;14.93;9.75;;;;;;;8.55;65.55;95473.41;4928954;29;20036;-80
2021/11/20 03:48:01;;;;;;;15.57;10.43;;;;;;;8.56;65.78;95482.78;4904298;29;20044;-82
2021/11/20 03:50:27;;;;;;;14.57;9.65;;;;;;;8.56;65.68;95479.41;4920365;29;20435;-82
2021/11/20 03:52:53;;;;;;;14.80;10.82;;;;;;;8.58;66.00;95483.38;4936098;29;20039;-81
2021/11/20 03:55:27;;;;;;;12.32;8.57;;;;;;;8.65;65.70;95483.38;4930007;29;20033;-80
2021/11/20 03:57:53;;;;;;;12.73;9.05;;;;;;;8.66;65.48;95492.75;4918643;29;20044;-80
2021/11/20 04:00:18;;;;;;;14.68;9.45;;;;;;;8.65;65.31;95484.19;4896667;29;20036;-81
2021/11/20 04:02:44;;;;;;;14.30;10.38;;;;;;;8.64;65.34;95482.59;4899409;29;20085;-82
2021/11/20 04:05:10;;;;;;;16.10;10.02;;;;;;;8.67;65.34;95477.00;4920061;29;20111;-81
2021/11/20 04:07:37;;;;;;;13.07;8.27;;;;;;;8.64;65.41;95486.97;4934231;23;20121;-82
2021/11/20 04:10:04;;;;;;;15.95;10.98;;;;;;;8.70;65.28;95480.97;4928277;29;20044;-81
2021/11/20 04:12:30;;;;;;;12.75;8.70;;;;;;;8.76;64.94;95482.75;4996420;23;20181;-81
2021/11/20 04:14:56;;;;;;;11.77;9.15;;;;;;;8.79;64.91;95482.34;4927962;29;20115;-80
2021/11/20 04:17:21;;;;;;;12.43;9.30;;;;;;;8.84;64.31;95481.72;4929669;29;20036;-81
2021/11/20 04:19:56;;;;;;;13.45;9.02;;;;;;;8.85;64.47;95489.31;4894636;29;20071;-80
2021/11/20 04:22:21;;;;;;;17.75;10.25;;;;;;;8.86;64.83;95485.72;4909744;29;20036;-80
2021/11/20 04:24:47;;;;;;;16.88;9.25;;;;;;;8.83;64.38;95493.91;4934905;29;20103;-81
2021/11/20 04:27:12;;;;;;;16.75;9.73;;;;;;;8.83;64.34;95493.91;4907929;29;20040;-81
2021/11/20 04:29:40;;;;;;;17.98;11.32;;;;;;;8.87;64.08;95491.69;4927382;29;20028;-81
2021/11/20 04:32:06;;;;;;;15.98;10.27;;;;;;;8.88;64.39;95495.88;4924712;29;20027;-80
2021/11/20 04:34:32;;;;;;;13.15;9.32;;;;;;;8.89;63.84;95495.69;4928233;29;20068;-81
2021/11/20 04:36:58;;;;;;;13.07;9.07;;;;;;;8.99;63.74;95495.25;4928785;29;20023;-81
2021/11/20 04:39:23;;;;;;;11.90;9.10;;;;;;;9.03;63.56;95494.63;4941810;29;20054;-81
2021/11/20 04:41:49;;;;;;;13.68;8.48;;;;;;;9.08;63.08;95490.63;4929219;29;20040;-81
2021/11/20 04:44:14;;;;;;;13.48;8.25;;;;;;;9.11;62.75;95487.59;4926590;29;20040;-80
2021/11/20 04:46:41;;;;;;;12.35;8.90;;;;;;;9.08;62.42;95477.66;4939722;29;20032;-80
2021/11/20 04:49:06;;;;;;;11.95;7.93;;;;;;;9.06;63.01;95474.47;4939703;29;20023;-80
2021/11/20 04:51:44;;;;;;;12.95;8.77;;;;;;;9.05;62.74;95462.50;4908480;29;20095;-81
2021/11/20 04:54:09;;;;;;;11.98;8.32;;;;;;;9.07;62.68;95465.69;4940181;29;20091;-81
2021/11/20 04:56:35;;;;;;;18.52;8.43;;;;;;;9.10;62.48;95465.25;4940510;29;20044;-81
2021/11/20 04:59:01;;;;;;;10.57;7.07;;;;;;;9.09;63.06;95467.06;4932386;29;20040;-79
2021/11/20 05:01:26;;;;;;;9.45;8.27;;;;;;;9.01;62.54;95457.72;4908649;29;20028;-80
2021/11/20 05:03:53;;;;;;;16.15;9.65;;;;;;;9.02;63.68;95459.31;4903283;29;20027;-80
2021/11/20 05:06:19;;;;;;;26.40;9.52;;;;;;;8.98;63.31;95458.16;4908825;29;20024;-81
2021/11/20 05:08:45;;;;;;;9.65;7.70;;;;;;;9.01;63.29;95449.94;4919148;29;20027;-80
2021/11/20 05:11:11;;;;;;;12.75;7.15;;;;;;;9.01;63.47;95456.94;4914875;29;20543;-79
2021/11/20 05:13:36;;;;;;;12.00;7.72;;;;;;;9.03;62.95;95453.13;4922149;29;20455;-80
2021/11/20 05:16:02;;;;;;;15.95;8.30;;;;;;;9.05;63.32;95441.75;4898760;29;20028;-82
2021/11/20 05:18:27;;;;;;;14.25;11.13;;;;;;;9.04;62.83;95440.94;4896762;29;20114;-81
2021/11/20 05:20:54;;;;;;;13.32;8.95;;;;;;;9.03;63.53;95449.75;4895963;29;20043;-80
2021/11/20 05:23:20;;;;;;;10.70;6.60;;;;;;;9.02;62.91;95448.94;4898313;29;20087;-80
2021/11/20 05:25:46;;;;;;;8.40;7.03;;;;;;;9.05;63.27;95457.31;4896712;29;20036;-81
2021/11/20 05:28:12;;;;;;;11.15;7.85;;;;;;;9.02;63.75;95464.50;4896880;29;20036;-79
2021/11/20 05:30:38;;;;;;;16.83;9.82;;;;;;;9.00;63.48;95460.53;4897756;29;20032;-81
2021/11/20 05:33:13;;;;;;;16.52;10.45;;;;;;;9.04;63.62;95459.09;4930080;29;20147;-82
2021/11/20 05:35:39;;;;;;;16.27;8.38;;;;;;;9.04;63.97;95456.50;4899349;29;20043;-82
2021/11/20 05:38:05;;;;;;;11.10;7.57;;;;;;;9.02;63.47;95458.53;4931088;29;20059;-81
2021/11/20 05:40:30;;;;;;;14.38;8.60;;;;;;;9.01;63.30;95457.72;4929468;29;20038;-81
2021/11/20 05:42:59;;;;;;;10.43;8.75;;;;;;;9.09;63.48;95463.69;4914235;29;20036;-81
2021/11/20 05:45:27;;;;;;;15.65;9.65;;;;;;;9.09;63.41;95466.25;4920077;29;20046;-81
2021/11/20 05:47:53;;;;;;;13.05;9.60;;;;;;;9.08;63.39;95472.47;4903388;29;20059;-82
2021/11/20 05:50:19;;;;;;;14.23;9.00;;;;;;;9.06;63.42;95480.44;4897925;29;20039;-81
2021/11/20 05:52:46;;;;;;;12.95;8.55;;;;;;;9.05;63.80;95486.66;4919915;29;20103;-82
2021/11/20 05:55:15;;;;;;;13.10;9.27;;;;;;;9.02;63.86;95480.06;4898288;29;20036;-83
2021/11/20 05:57:40;;;;;;;15.23;10.25;;;;;;;9.10;63.49;95497.19;4916035;29;20475;-82
2021/11/20 06:00:10;;;;;;;20.45;10.38;;;;;;;9.17;63.00;95497.97;4901054;29;20079;-81
2021/11/20 06:02:35;;;;;;;15.40;11.05;;;;;;;9.17;63.19;95499.78;4915695;29;20031;-82
2021/11/20 06:05:01;;;;;;;16.63;10.98;;;;;;;9.23;62.89;95491.97;4912554;29;20419;-81
2021/11/20 06:07:26;;;;;;;10.77;9.10;;;;;;;9.16;62.58;95474.84;4915255;29;20040;-81
2021/11/20 06:09:52;;;;;;;13.50;10.55;;;;;;;9.31;62.55;95493.53;4914599;29;20035;-81
2021/11/20 06:12:17;;;;;;;21.77;8.95;;;;;;;9.34;62.42;95474.94;4914367;29;20025;-81
2021/11/20 06:14:43;;;;;;;12.20;8.63;;;;;;;9.33;62.19;95483.75;4915505;29;20519;-81
2021/11/20 06:17:08;;;;;;;14.73;9.63;;;;;;;9.31;62.47;95483.16;4910775;29;20028;-79
2021/11/20 06:19:34;;;;;;;14.30;9.93;;;;;;;9.40;62.80;95487.09;4912584;29;20103;-82
2021/11/20 06:24:34;;;;;;;24.88;13.75;;;;;;;9.44;61.79;95477.91;4936284;23;20040;-81
2021/11/20 06:26:59;;;;;;;19.35;12.35;;;;;;;9.52;61.78;95490.63;4928760;29;20050;-81
2021/11/20 06:29:25;;;;;;;14.40;10.77;;;;;;;9.57;61.29;95490.00;4912634;29;20067;-82
2021/11/20 06:31:50;;;;;;;19.33;12.27;;;;;;;9.60;61.07;95493.00;4912547;29;20034;-81
2021/11/20 06:34:16;;;;;;;19.63;13.38;;;;;;;9.65;61.09;95491.56;4929870;29;20031;-83
2021/11/20 06:36:42;;;;;;;13.13;9.68;;;;;;;9.65;61.26;95488.97;4933626;29;20032;-82
2021/11/20 06:39:08;;;;;;;16.33;10.57;;;;;;;9.67;60.28;95499.94;4911265;29;20110;-82
2021/11/20 06:41:35;;;;;;;13.75;9.90;;;;;;;9.72;60.39;95502.69;4895200;29;20517;-80
2021/11/20 06:44:02;;;;;;;16.23;9.88;;;;;;;9.78;60.25;95504.47;4909704;29;20503;-82
2021/11/20 06:46:27;;;;;;;13.15;8.88;;;;;;;9.77;60.27;95505.47;4897262;29;20522;-87
2021/11/20 06:48:53;;;;;;;14.85;9.15;;;;;;;9.84;60.06;95498.44;4908350;29;20032;-81
2021/11/20 06:51:18;;;;;;;12.43;9.10;;;;;;;9.87;59.41;95500.59;4927109;29;20039;-81
2021/11/20 06:53:44;;;;;;;15.40;9.98;;;;;;;9.89;59.22;95496.00;4927681;29;20028;-81
2021/11/20 06:56:25;;;;;;;23.27;10.45;;;;;;;9.90;59.12;95502.78;4919013;29;20965;-81
2021/11/20 07:01:17;;;;;;;20.35;12.70;;;;;;;9.92;59.13;95505.94;4941916;29;20157;-81
2021/11/20 07:03:45;;;;;;;26.33;13.10;;;;;;;9.90;59.53;95500.97;4933668;29;20484;-81
2021/11/20 07:06:29;;;;;;;23.67;15.63;;;;;;;9.98;59.66;95496.53;4911397;29;20076;-81
2021/11/20 07:08:55;;;;;;;14.75;10.68;;;;;;;10.00;59.03;95497.13;4917948;29;20035;-82
2021/11/20 07:11:21;;;;;;;19.15;12.65;;;;;;;10.00;59.37;95492.72;4894712;29;20047;-81
2021/11/20 07:13:49;;;;;;;11.82;8.10;;;;;;;9.98;59.06;95497.34;4893520;29;20040;-81
2021/11/20 07:16:15;;;;;;;16.83;9.85;;;;;;;9.99;59.35;95500.72;4920745;29;20056;-82
2021/11/20 07:18:41;;;;;;;20.60;12.35;;;;;;;9.95;59.34;95495.16;4895989;29;20084;-82
2021/11/20 07:21:06;;;;;;;15.98;9.15;;;;;;;9.97;58.76;95482.75;4909866;29;20055;-81
2021/11/20 07:23:32;;;;;;;18.58;11.52;;;;;;;10.01;59.09;95489.13;4909625;29;20079;-81
2021/11/20 07:26:00;;;;;;;11.25;8.60;;;;;;;10.03;58.43;95492.28;4917476;29;20456;-81
2021/11/20 07:28:26;;;;;;;23.38;13.32;;;;;;;10.13;58.64;95479.63;4911002;29;20033;-81
2021/11/20 07:30:51;;;;;;;43.95;26.70;;;;;;;10.14;57.65;95483.81;4932797;29;20039;-81
2021/11/20 07:33:17;;;;;;;40.65;30.20;;;;;;;10.21;58.45;95474.19;4921958;29;20036;-80
2021/11/20 07:35:54;;;;;;;24.60;16.90;;;;;;;10.21;58.00;95474.19;4898271;29;20039;-80
2021/11/20 07:38:22;;;;;;;20.25;11.63;;;;;;;10.23;57.91;95481.75;4913462;29;20028;-78
2021/11/20 07:40:47;;;;;;;17.02;12.23;;;;;;;10.21;57.94;95479.38;4922488;29;20397;-78
2021/11/20 07:43:13;;;;;;;32.05;17.85;;;;;;;10.22;57.82;95486.16;4914812;29;20496;-77
2021/11/20 07:45:39;;;;;;;26.20;13.02;;;;;;;10.26;57.63;95489.16;4894529;29;20040;-82
2021/11/20 07:48:16;;;;;;;26.70;15.68;;;;;;;10.40;57.70;95498.41;4923632;29;20060;-77
2021/11/20 07:50:44;;;;;;;15.68;11.93;;;;;;;10.55;56.87;95498.09;4905337;29;20091;-76
2021/11/20 07:53:09;;;;;;;18.25;10.73;;;;;;;10.61;56.93;95494.66;4906325;29;20087;-75
2021/11/20 07:55:35;;;;;;;22.25;11.10;;;;;;;10.64;56.17;95498.63;4929354;29;20035;-77
2021/11/20 07:58:00;;;;;;;17.17;11.57;;;;;;;10.62;56.06;95498.03;4923004;29;20035;-77
2021/11/20 08:00:26;;;;;;;21.58;11.07;;;;;;;10.68;56.06;95500.56;4905710;29;20040;-77
2021/11/20 08:02:51;;;;;;;16.95;9.82;;;;;;;10.71;55.38;95494.13;4921775;29;20054;-77
2021/11/20 08:05:17;;;;;;;19.08;11.18;;;;;;;10.77;55.72;95491.47;4929031;29;20088;-77
2021/11/20 08:07:43;;;;;;;10.02;7.95;;;;;;;10.86;54.63;95485.97;4928575;29;20036;-77
2021/11/20 08:10:10;;;;;;;16.05;11.63;;;;;;;10.85;55.09;95494.81;4905380;29;20036;-77
2021/11/20 08:12:36;;;;;;;15.73;8.25;;;;;;;10.83;54.93;95479.41;4936550;29;20028;-77
2021/11/20 08:15:01;;;;;;;8.57;6.25;;;;;;;10.84;55.30;95496.59;4912420;29;20076;-77
2021/11/20 08:17:27;;;;;;;7.70;6.47;;;;;;;10.82;55.49;95493.44;4906558;29;20341;-77
2021/11/20 08:19:53;;;;;;;21.27;8.82;;;;;;;10.81;55.32;95484.03;4924707;29;20194;-77
2021/11/20 08:22:19;;;;;;;12.07;6.95;;;;;;;10.72;55.08;95498.31;4890879;29;20114;-79
2021/11/20 08:24:44;;;;;;;9.38;7.18;;;;;;;10.64;55.67;95485.63;4924607;29;20563;-82
2021/11/20 08:27:10;;;;;;;17.98;7.50;;;;;;;10.60;56.22;95482.66;4914333;29;20032;-81
2021/11/20 08:29:37;;;;;;;14.88;6.75;;;;;;;10.55;55.32;95485.09;4900884;29;20038;-82
2021/11/20 08:32:05;;;;;;;38.30;6.80;;;;;;;10.42;55.95;95490.44;4898961;29;20035;-82
2021/11/20 08:34:30;;;;;;;17.17;9.48;;;;;;;10.42;58.95;95490.44;4923048;29;20043;-83
2021/11/20 08:36:56;;;;;;;15.63;9.73;;;;;;;10.57;58.53;95484.88;4930150;29;20032;-81
2021/11/20 08:39:21;;;;;;;15.15;9.15;;;;;;;10.73;56.73;95476.50;4923495;29;20028;-80
2021/11/20 08:41:47;;;;;;;18.50;8.52;;;;;;;10.80;57.63;95491.03;4921660;29;20028;-79
2021/11/20 08:44:13;;;;;;;21.08;8.13;;;;;;;10.78;57.49;95485.28;4943374;29;20035;-79
2021/11/20 08:46:39;;;;;;;12.88;7.53;;;;;;;10.90;57.04;95476.72;4932149;29;20551;-74
2021/11/20 08:49:05;;;;;;;21.58;9.57;;;;;;;10.95;56.82;95489.91;4927921;29;20045;-78
2021/11/20 08:51:31;;;;;;;10.45;7.03;;;;;;;11.08;56.03;95489.75;4911119;29;20031;-79
2021/11/20 08:53:57;;;;;;;10.55;8.20;;;;;;;11.13;57.02;95495.09;4893604;29;20472;-80
2021/11/20 08:56:23;;;;;;;12.57;8.57;;;;;;;11.22;57.04;95492.97;4892400;29;20488;-78
2021/11/20 08:58:49;;;;;;;15.55;11.05;;;;;;;11.32;55.82;95493.25;4916078;29;20096;-77
2021/11/20 09:01:26;;;;;;;22.95;12.45;;;;;;;11.41;55.67;95489.34;4892738;29;20107;-78
2021/11/20 09:04:17;;;;;;;17.70;12.25;;;;;;;11.40;56.35;95496.38;4892844;29;20032;-80
2021/11/20 09:06:56;;;;;;;17.60;11.70;;;;;;;11.42;56.54;95486.53;4903886;29;20064;-79
2021/11/20 09:09:30;;;;;;;17.83;11.13;;;;;;;11.49;56.64;95485.63;4895427;29;20039;-77
2021/11/20 09:11:57;;;;;;;16.85;9.38;;;;;;;11.53;56.43;95481.56;4935673;29;20113;-79
2021/11/20 09:14:28;;;;;;;16.45;9.90;;;;;;;11.52;56.80;95483.38;4914039;29;20043;-81
2021/11/20 09:16:58;;;;;;;22.40;12.57;;;;;;;11.53;56.25;95486.78;4914284;29;20074;-80
2021/11/20 09:19:24;;;;;;;20.35;11.50;;;;;;;11.46;56.46;95486.09;4900020;29;20384;-79
2021/11/20 09:21:49;;;;;;;10.75;7.90;;;;;;;11.41;56.38;95471.13;4922840;29;20040;-78
2021/11/20 09:24:15;;;;;;;15.65;8.02;;;;;;;11.30;57.50;95490.09;4943500;29;20028;-79
2021/11/20 09:26:41;;;;;;;28.10;8.85;;;;;;;11.26;58.34;95481.94;4905836;29;20134;-79
2021/11/20 09:29:08;;;;;;;15.73;8.45;;;;;;;11.17;58.51;95483.22;4916944;29;20392;-81
2021/11/20 09:31:34;;;;;;;11.98;6.88;;;;;;;11.05;58.64;95479.75;4929831;29;20040;-80
2021/11/20 09:34:00;;;;;;;11.52;6.90;;;;;;;10.95;58.82;95474.28;4915323;29;20056;-78
2021/11/20 09:36:26;;;;;;;16.80;8.73;;;;;;;10.91;59.71;95467.94;4917051;29;20396;-80
2021/11/20 09:38:52;;;;;;;11.77;8.25;;;;;;;10.84;59.91;95473.19;4900207;29;20172;-81
2021/11/20 09:41:25;;;;;;;14.40;8.93;;;;;;;10.85;59.98;95469.56;4915074;29;20048;-79
2021/11/20 09:43:53;;;;;;;9.65;7.55;;;;;;;10.87;59.74;95466.75;4921058;29;20096;-80
2021/11/20 09:46:24;;;;;;;31.65;11.02;;;;;;;10.91;60.45;95462.72;4937845;29;20113;-78
2021/11/20 09:48:56;;;;;;;18.65;11.75;;;;;;;10.92;60.24;95465.09;4920613;29;20035;-82
2021/11/20 09:51:25;;;;;;;11.20;9.25;;;;;;;10.99;59.95;95459.81;4920778;29;20071;-78
2021/11/20 09:53:51;;;;;;;23.52;15.45;;;;;;;11.00;59.47;95456.19;4933559;29;20125;-78
2021/11/20 09:56:45;;;;;;;24.15;15.27;;;;;;;11.07;59.76;95451.72;4919322;29;20040;-78
2021/11/20 09:59:29;;;;;;;14.40;7.70;;;;;;;11.12;59.97;95449.25;4936710;29;20036;-82
2021/11/20 10:01:59;;;;;;;17.42;8.15;;;;;;;11.22;59.48;95448.72;4916371;29;20115;-80
2021/11/20 10:04:46;;;;;;;13.18;9.38;;;;;;;11.22;59.03;95433.91;4930758;29;20050;-81
2021/11/20 10:07:14;;;;;;;20.55;11.55;;;;;;;11.23;58.97;95450.34;4914193;29;20036;-80
2021/11/20 10:09:46;;;;;;;19.00;11.60;;;;;;;11.24;58.93;95451.91;4912733;29;20066;-80
2021/11/20 10:12:11;;;;;;;15.75;10.45;;;;;;;11.21;58.90;95453.13;4935013;29;20040;-82
2021/11/20 10:14:52;;;;;;;17.20;11.13;;;;;;;11.19;59.39;95449.16;4936974;29;20047;-83
2021/11/20 10:17:31;;;;;;;17.85;12.05;;;;;;;11.22;58.86;95448.72;4922749;29;20047;-82
2021/11/20 10:20:01;;;;;;;12.02;8.82;;;;;;;11.23;59.54;95450.34;4941739;29;20123;-78
2021/11/20 10:22:39;;;;;;;34.03;10.20;;;;;;;11.21;59.05;95442.72;4933895;29;20051;-79
2021/11/20 10:25:13;;;;;;;17.52;10.02;;;;;;;11.24;59.21;95431.09;4932103;29;20032;-77
2021/11/20 10:28:02;;;;;;;31.13;20.50;;;;;;;11.25;59.19;95438.69;4932945;29;20039;-79
2021/11/20 10:30:47;;;;;;;21.17;12.98;;;;;;;11.30;58.54;95444.00;4919327;29;20032;-78
2021/11/20 10:33:22;;;;;;;15.63;11.15;;;;;;;11.29;59.55;95447.63;4935224;29;20068;-78
2021/11/20 10:35:51;;;;;;;13.90;10.70;;;;;;;11.33;59.11;95430.56;4902187;29;20032;-79
2021/11/20 10:38:20;;;;;;;18.23;13.70;;;;;;;11.38;58.59;95433.28;4895995;29;20040;-79
2021/11/20 10:41:05;;;;;;;12.20;8.65;;;;;;;11.35;58.27;95428.53;4930990;29;20032;-79
2021/11/20 10:43:42;;;;;;;20.90;13.77;;;;;;;11.38;58.66;95420.25;4927725;29;20051;-79
2021/11/20 10:46:31;;;;;;;23.33;12.10;;;;;;;11.47;58.68;95419.97;4927135;29;20095;-80
2021/11/20 10:49:16;;;;;;;31.00;21.25;;;;;;;11.53;58.36;95413.84;4914827;29;20028;-80
2021/11/20 10:51:55;;;;;;;33.38;24.80;;;;;;;11.58;57.78;95412.19;4917324;29;20075;-79
2021/11/20 10:54:43;;;;;;;37.63;27.90;;;;;;;11.55;57.81;95411.81;4900204;29;20130;-78
2021/11/20 10:57:35;;;;;;;51.00;31.15;;;;;;;11.59;58.24;95399.97;4922749;29;20036;-78
2021/11/20 11:00:51;;;;;;;44.72;29.30;;;;;;;11.59;57.97;95392.16;4936248;29;20134;-79
2021/11/20 11:03:35;;;;;;;19.02;12.48;;;;;;;11.60;57.95;95410.16;4898799;29;20060;-79
2021/11/20 11:06:24;;;;;;;29.73;19.33;;;;;;;11.65;57.96;95401.66;4917181;29;20640;-79
2021/11/20 11:09:13;;;;;;;27.02;17.13;;;;;;;11.60;58.41;95411.97;4925577;29;20476;-77
2021/11/20 11:12:01;;;;;;;23.52;14.02;;;;;;;11.54;58.11;95399.81;4913607;29;20044;-81
2021/11/20 11:14:33;;;;;;;20.85;12.52;;;;;;;11.48;58.23;95406.72;4934448;29;20670;-83
2021/11/20 11:17:32;;;;;;;15.77;11.83;;;;;;;11.41;58.63;95411.22;4931911;29;20059;-84
2021/11/20 11:20:16;;;;;;;14.23;11.00;;;;;;;11.33;59.07;95414.94;4912467;29;20044;-82
2021/11/20 11:22:52;;;;;;;24.08;17.20;;;;;;;11.37;58.93;95410.84;4934109;29;20412;-84
2021/11/20 11:25:21;;;;;;;20.85;13.07;;;;;;;11.41;58.70;95406.03;4908418;29;20039;-82
2021/11/20 11:28:14;;;;;;;31.67;17.27;;;;;;;11.42;59.00;95400.59;4927275;29;20480;-84
2021/11/20 11:30:55;;;;;;;23.27;15.60;;;;;;;11.40;58.73;95405.22;4910939;29;20059;-78
2021/11/20 11:33:20;;;;;;;20.60;15.20;;;;;;;11.43;58.98;95404.00;4923474;29;20074;-76
2021/11/20 11:35:55;;;;;;;18.00;13.65;;;;;;;11.43;58.55;95399.56;4929407;29;20474;-80
2021/11/20 11:38:53;;;;;;;24.20;12.02;;;;;;;11.48;58.39;95403.31;4921269;29;20040;-78
2021/11/20 11:41:34;;;;;;;19.88;14.18;;;;;;;11.51;58.69;95402.88;4927863;29;20059;-78
2021/11/20 11:44:09;;;;;;;31.65;11.45;;;;;;;11.45;58.05;95385.53;4898110;29;20081;-79
2021/11/20 11:46:55;;;;;;;25.40;15.07;;;;;;;11.45;58.00;95386.34;4899511;29;20063;-80